KSGR/SGR METAR and TAF weather

Enter ICAO airport designator
Station Type Date Time Source
KSGR METAR 2019/12/13 03:32 UTC NOAA

KSGR 130332Z 00000KT 10SM BKN029 OVC035 11/09 A3011 RMK AO2 T01060094


Station Type Date Time Source
KSGR Decoded METAR 2019/12/13 03:32 UTC NOAA

SUGARLAND REGIONAL AIRPORT, TX, United States (KSGR) 29-37N 095-39W
Dec 12, 2019 - 10:32 PM EST / 2019.12.13 0332 UTC
Wind: Calm:0
Visibility: 10 mile(s):0
Sky conditions: overcast
Temperature: 51.1 F (10.6 C)
Dew Point: 48.9 F (9.4 C)
Relative Humidity: 92%
Pressure (altimeter): 30.11 in. Hg (1019 hPa)
ob: KSGR 130332Z 00000KT 10SM BKN029 OVC035 11/09 A3011 RMK AO2 T01060094
cycle: 3

Station Type Date Time Source
KSGR TAF 2019/12/12 18:22 UTC NOAA

TAF KSGR 121720Z 1218/1318 08007KT P6SM SCT035 BKN120
FM130100 11004KT P6SM SCT025
FM130900 VRB02KT P6SM BKN025
TEMPO 1312/1315 4SM BR BKN010
FM131600 21005KT P6SM SCT020
FM131730 22007KT P6SM FEW035

Example: see airport list